Time;durP1;ratioP1;P1;durP2;ratioP2;P2;SDS_P1;SDS_P2;PMS_P1;PMS_P2;Temp;Humidity;BMP_temperature;BMP_pressure;BME280_temperature;BME280_humidity;BME280_pressure;Samples;Min_cycle;Max_cycle;Signal;HPM_P1;HPM_P2
2022/04/22 00:01:29;;;;;;;2.80;2.55;;;13.30;66.10;;;;;;4953345;28;20227;-71
2022/04/22 00:03:55;;;;;;;3.47;2.55;;;13.20;66.20;;;;;;4953111;28;20279;-71
2022/04/22 00:06:21;;;;;;;4.00;2.75;;;13.20;66.50;;;;;;4953477;28;20175;-72
2022/04/22 00:08:47;;;;;;;4.10;2.93;;;13.10;66.80;;;;;;4954260;28;20168;-71
2022/04/22 00:11:30;;;;;;;5.17;3.20;;;13.10;66.90;;;;;;4954245;28;20600;-72
2022/04/22 00:13:58;;;;;;;3.70;3.10;;;13.00;67.10;;;;;;4953247;28;20612;-72
2022/04/22 00:16:25;;;;;;;3.15;2.78;;;13.00;67.30;;;;;;4954292;28;20180;-72
2022/04/22 00:18:51;;;;;;;3.95;2.60;;;12.90;69.20;;;;;;4953997;28;20316;-72
2022/04/22 00:21:17;;;;;;;7.83;3.30;;;12.90;69.00;;;;;;4954085;28;20176;-72
2022/04/22 00:23:43;;;;;;;3.80;2.70;;;12.90;69.20;;;;;;4953082;28;20212;-72
2022/04/22 00:26:08;;;;;;;3.00;2.47;;;12.90;69.10;;;;;;4953938;28;20579;-72
2022/04/22 00:28:34;;;;;;;3.63;3.03;;;12.80;70.40;;;;;;4952554;28;20180;-72
2022/04/22 00:31:00;;;;;;;4.27;3.23;;;12.80;69.90;;;;;;4952498;28;20200;-72
2022/04/22 00:33:26;;;;;;;6.25;3.65;;;12.80;70.30;;;;;;4954143;28;20259;-72
2022/04/22 00:35:52;;;;;;;3.03;2.57;;;12.80;72.70;;;;;;4953993;28;20172;-72
2022/04/22 00:38:18;;;;;;;4.87;3.23;;;12.80;71.30;;;;;;4953742;28;20188;-71
2022/04/22 00:40:43;;;;;;;4.40;3.97;;;12.80;72.10;;;;;;4953568;28;20169;-72
2022/04/22 00:43:19;;;;;;;3.43;3.13;;;12.80;71.40;;;;;;4935527;28;20226;-72
2022/04/22 00:45:46;;;;;;;4.57;3.35;;;12.80;73.70;;;;;;4936649;29;20588;-73
2022/04/22 00:48:12;;;;;;;4.20;3.45;;;12.80;71.80;;;;;;4953409;28;20176;-72
2022/04/22 00:50:39;;;;;;;3.50;3.17;;;12.80;71.70;;;;;;4936350;28;20203;-72
2022/04/22 00:53:06;;;;;;;5.32;3.40;;;12.90;72.00;;;;;;4953250;28;20653;-72
2022/04/22 00:55:32;;;;;;;3.67;3.08;;;12.90;71.90;;;;;;4936678;29;20224;-72
2022/04/22 00:57:59;;;;;;;3.58;2.63;;;12.80;71.80;;;;;;4952127;28;20255;-72
2022/04/22 01:00:25;;;;;;;4.05;3.35;;;12.80;72.00;;;;;;4953212;28;20172;-72
2022/04/22 01:02:51;;;;;;;4.35;3.58;;;12.80;72.10;;;;;;4953770;28;20668;-72
2022/04/22 01:10:45;;;;;;;3.85;2.83;;;12.70;72.50;;;;;;4951761;28;20211;-72
2022/04/22 01:13:11;;;;;;;4.80;3.20;;;12.70;72.60;;;;;;4952213;28;20164;-72
2022/04/22 01:15:37;;;;;;;5.27;3.70;;;12.60;72.80;;;;;;4936273;28;21123;-72
2022/04/22 01:18:04;;;;;;;5.15;3.42;;;12.60;73.20;;;;;;4952910;28;20583;-72
2022/04/22 01:20:29;;;;;;;5.00;3.58;;;12.60;73.70;;;;;;4953035;28;20180;-71
2022/04/22 01:22:55;;;;;;;3.33;3.03;;;12.50;74.00;;;;;;4953485;28;20187;-72
2022/04/22 01:25:21;;;;;;;3.00;2.60;;;12.50;74.20;;;;;;4953415;28;20603;-72
2022/04/22 01:27:51;;;;;;;4.00;3.20;;;12.40;74.40;;;;;;4952922;28;20183;-71
2022/04/22 01:30:23;;;;;;;3.25;2.95;;;12.40;75.20;;;;;;4952678;28;20286;-72
2022/04/22 01:32:51;;;;;;;3.35;3.03;;;12.40;76.00;;;;;;4953283;28;20161;-72
2022/04/22 01:35:20;;;;;;;5.32;3.50;;;12.40;75.50;;;;;;4953250;28;20199;-72
2022/04/22 01:37:46;;;;;;;6.70;3.40;;;12.30;76.40;;;;;;4951802;28;20239;-72
2022/04/22 01:40:12;;;;;;;7.00;3.53;;;12.30;76.30;;;;;;4951646;28;20219;-72
2022/04/22 01:42:38;;;;;;;3.90;3.47;;;12.20;76.60;;;;;;4953211;28;20224;-72
2022/04/22 01:45:06;;;;;;;6.20;3.00;;;12.20;76.70;;;;;;4935636;29;20676;-72
2022/04/22 01:47:31;;;;;;;3.45;3.15;;;12.10;77.10;;;;;;4952759;28;21146;-72
2022/04/22 01:49:57;;;;;;;4.13;3.47;;;12.10;77.50;;;;;;4952741;28;20287;-72
2022/04/22 01:52:24;;;;;;;4.70;4.17;;;12.10;77.90;;;;;;4952912;28;20679;-71
2022/04/22 01:54:54;;;;;;;4.40;3.13;;;12.10;78.20;;;;;;4951662;28;20208;-72
2022/04/22 01:57:23;;;;;;;4.95;3.13;;;12.00;78.50;;;;;;4951926;28;20168;-71
2022/04/22 01:59:49;;;;;;;4.13;3.35;;;12.00;79.10;;;;;;4952051;28;20176;-72
2022/04/22 02:02:18;;;;;;;3.75;3.05;;;12.00;79.20;;;;;;4951848;28;20256;-72
2022/04/22 02:04:45;;;;;;;5.18;3.90;;;11.90;79.80;;;;;;4952816;28;20315;-72
2022/04/22 02:07:11;;;;;;;5.15;3.85;;;11.90;79.80;;;;;;4952943;28;20179;-72
2022/04/22 02:09:37;;;;;;;5.32;3.60;;;11.90;80.20;;;;;;4952151;28;20218;-72
2022/04/22 02:12:06;;;;;;;4.40;4.00;;;11.90;80.50;;;;;;4952976;28;20692;-72
2022/04/22 02:14:33;;;;;;;3.70;3.40;;;11.90;81.20;;;;;;4952665;28;20193;-71
2022/04/22 02:16:59;;;;;;;4.30;3.90;;;11.80;81.10;;;;;;4952868;28;20157;-72
2022/04/22 02:19:25;;;;;;;4.17;3.70;;;11.80;81.60;;;;;;4952289;28;20173;-72
2022/04/22 02:21:51;;;;;;;4.53;3.50;;;11.70;81.80;;;;;;4952776;28;21132;-71
2022/04/22 02:24:17;;;;;;;5.30;3.95;;;11.70;82.20;;;;;;4952816;28;20200;-71
2022/04/22 02:29:27;;;;;;;3.80;3.40;;;11.70;82.90;;;;;;4952269;28;20263;-72
2022/04/22 02:31:53;;;;;;;4.93;4.37;;;11.70;83.00;;;;;;4952660;28;20264;-72
2022/04/22 02:34:23;;;;;;;7.50;3.87;;;11.60;83.50;;;;;;4951656;28;20549;-71
2022/04/22 02:36:50;;;;;;;5.70;4.55;;;11.60;84.30;;;;;;4951638;28;20204;-72
2022/04/22 02:39:16;;;;;;;6.80;4.47;;;11.60;84.20;;;;;;4952178;28;20177;-72
2022/04/22 02:47:11;;;;;;;4.53;2.95;;;11.50;85.10;;;;;;4952666;28;20195;-71
2022/04/22 02:49:37;;;;;;;4.40;4.00;;;11.50;85.30;;;;;;4953614;28;20212;-71
2022/04/22 02:52:03;;;;;;;5.00;3.63;;;11.40;85.80;;;;;;4956059;28;20208;-71
2022/04/22 02:54:33;;;;;;;7.85;4.20;;;11.40;86.30;;;;;;4955874;28;20604;-72
2022/04/22 02:56:59;;;;;;;4.82;4.35;;;11.40;87.00;;;;;;4954788;28;20169;-71
2022/04/22 02:59:25;;;;;;;6.80;4.80;;;11.40;87.60;;;;;;4955625;28;20643;-71
2022/04/22 03:01:50;;;;;;;5.77;4.27;;;11.30;87.70;;;;;;4955669;28;20203;-71
2022/04/22 03:04:16;;;;;;;6.00;4.37;;;11.30;88.10;;;;;;4954614;28;20206;-71
2022/04/22 03:06:43;;;;;;;6.70;4.23;;;11.30;88.30;;;;;;4955771;28;20184;-72
2022/04/22 03:09:09;;;;;;;5.90;5.35;;;11.30;88.90;;;;;;4955197;28;20181;-72
2022/04/22 03:11:35;;;;;;;4.47;4.07;;;11.30;89.30;;;;;;4954246;28;20502;-72
2022/04/22 03:14:03;;;;;;;4.80;4.30;;;11.20;89.50;;;;;;4955667;28;20180;-72
2022/04/22 03:16:29;;;;;;;4.35;3.95;;;11.20;89.90;;;;;;4955484;28;20184;-72
2022/04/22 03:18:55;;;;;;;6.40;4.57;;;11.10;90.10;;;;;;4953929;28;20181;-71
2022/04/22 03:21:22;;;;;;;5.47;4.97;;;11.10;90.20;;;;;;4955262;28;20186;-72
2022/04/22 03:23:49;;;;;;;5.47;4.43;;;11.10;90.50;;;;;;4954163;28;20663;-72
2022/04/22 03:26:15;;;;;;;6.88;5.63;;;11.00;90.60;;;;;;4954115;28;20169;-71
2022/04/22 03:28:41;;;;;;;6.15;5.55;;;11.00;91.00;;;;;;4953473;28;20169;-72
2022/04/22 03:31:07;;;;;;;8.65;5.03;;;11.00;91.20;;;;;;4953618;28;20219;-72
2022/04/22 03:33:33;;;;;;;4.83;4.20;;;10.90;91.40;;;;;;4955099;28;20188;-72
2022/04/22 03:35:58;;;;;;;6.20;5.57;;;10.90;91.70;;;;;;4938255;29;20234;-72
2022/04/22 03:38:24;;;;;;;7.17;5.53;;;10.90;91.80;;;;;;4953597;28;20576;-72
2022/04/22 03:40:51;;;;;;;6.23;5.53;;;10.90;92.10;;;;;;4954548;28;20169;-72
2022/04/22 03:43:18;;;;;;;4.43;4.03;;;10.90;92.30;;;;;;4954694;28;21329;-72
2022/04/22 03:45:44;;;;;;;7.07;4.53;;;10.80;92.40;;;;;;4955071;28;20244;-72
2022/04/22 03:48:13;;;;;;;5.43;4.93;;;10.80;92.60;;;;;;4954475;28;20662;-71
2022/04/22 03:50:39;;;;;;;5.97;5.38;;;10.70;92.80;;;;;;4937381;29;20209;-72
2022/04/22 03:53:08;;;;;;;5.30;4.43;;;10.70;93.00;;;;;;4953518;28;20168;-72
2022/04/22 03:55:34;;;;;;;5.85;5.30;;;10.70;93.20;;;;;;4953380;28;20534;-72
2022/04/22 03:58:12;;;;;;;5.83;4.93;;;10.60;93.50;;;;;;4952849;28;20183;-72
2022/04/22 04:00:41;;;;;;;9.40;5.28;;;10.60;93.60;;;;;;4953641;28;20675;-71
2022/04/22 04:03:12;;;;;;;5.85;4.70;;;10.60;93.80;;;;;;4954430;28;20231;-72
2022/04/22 04:05:45;;;;;;;5.85;4.95;;;10.50;94.00;;;;;;4937444;28;20194;-72
2022/04/22 04:08:11;;;;;;;9.43;5.80;;;10.60;94.60;;;;;;4954398;28;20169;-72
2022/04/22 04:16:06;;;;;;;6.78;4.88;;;10.40;94.90;;;;;;4954558;28;20168;-72
2022/04/22 04:18:33;;;;;;;7.77;5.40;;;10.40;95.00;;;;;;4953943;28;20283;-72
2022/04/22 04:23:45;;;;;;;7.20;5.10;;;10.40;95.70;;;;;;4952926;28;20250;-71
2022/04/22 04:26:11;;;;;;;6.70;5.20;;;10.40;96.20;;;;;;4952948;28;20215;-72
2022/04/22 04:28:39;;;;;;;5.95;5.35;;;10.40;96.60;;;;;;4953890;28;20179;-72
2022/04/22 04:31:11;;;;;;;8.80;5.15;;;10.40;96.70;;;;;;4952326;28;20688;-72
2022/04/22 04:33:37;;;;;;;6.45;5.45;;;10.30;96.90;;;;;;4937122;29;20196;-73
2022/04/22 04:36:05;;;;;;;8.30;5.78;;;10.30;97.00;;;;;;4953965;28;20178;-73
2022/04/22 04:38:31;;;;;;;7.50;4.65;;;10.30;97.10;;;;;;4936094;29;20180;-73
2022/04/22 04:40:57;;;;;;;6.45;5.25;;;10.30;97.30;;;;;;4953730;28;20271;-73
2022/04/22 04:43:23;;;;;;;7.30;5.50;;;10.30;97.60;;;;;;4953818;28;20208;-73
2022/04/22 04:45:50;;;;;;;5.72;5.30;;;10.40;97.80;;;;;;4954089;28;20648;-74
2022/04/22 04:48:17;;;;;;;5.65;5.03;;;10.30;98.00;;;;;;4953620;28;20199;-74
2022/04/22 04:50:44;;;;;;;5.40;4.88;;;10.30;98.10;;;;;;4953743;28;20240;-74
2022/04/22 04:53:11;;;;;;;4.70;4.30;;;10.30;98.30;;;;;;4952427;28;20180;-74
2022/04/22 04:55:38;;;;;;;5.57;5.05;;;10.40;98.50;;;;;;4952662;28;20180;-74
2022/04/22 04:58:04;;;;;;;9.57;6.07;;;10.40;98.70;;;;;;4952254;28;20644;-74
2022/04/22 05:00:33;;;;;;;9.43;6.10;;;10.40;98.90;;;;;;4953059;28;20192;-74
2022/04/22 05:02:59;;;;;;;5.50;5.00;;;10.40;99.30;;;;;;4953966;28;20172;-74
2022/04/22 05:05:25;;;;;;;5.93;5.10;;;10.40;99.30;;;;;;4953753;28;20192;-74
2022/04/22 05:07:53;;;;;;;6.75;5.88;;;10.50;99.90;;;;;;4936228;28;20194;-74
2022/04/22 05:10:19;;;;;;;6.57;5.80;;;10.50;99.70;;;;;;4954016;28;20196;-74
2022/04/22 05:12:49;;;;;;;7.40;6.50;;;10.50;99.80;;;;;;4953025;28;20180;-74
2022/04/22 05:15:17;;;;;;;6.35;5.75;;;10.60;99.90;;;;;;4953939;28;20600;-73
2022/04/22 05:17:44;;;;;;;6.90;6.20;;;10.60;99.90;;;;;;4951848;28;20169;-73
2022/04/22 05:20:14;;;;;;;7.57;5.80;;;10.70;99.90;;;;;;4953248;28;20582;-73
2022/04/22 05:22:41;;;;;;;10.35;6.53;;;10.70;99.90;;;;;;4953593;28;20168;-74
2022/04/22 05:25:10;;;;;;;9.80;6.82;;;10.80;99.90;;;;;;4953650;28;20192;-73
2022/04/22 05:27:36;;;;;;;6.95;6.25;;;10.90;99.90;;;;;;4953425;28;20583;-74
2022/04/22 05:32:48;;;;;;;7.80;6.60;;;11.00;99.90;;;;;;4969354;28;20203;-74
2022/04/22 05:35:16;;;;;;;9.03;7.27;;;11.10;99.90;;;;;;4967498;28;20204;-73
2022/04/22 05:37:51;;;;;;;7.40;6.70;;;11.10;99.90;;;;;;4970706;28;20187;-73
2022/04/22 05:40:19;;;;;;;7.50;6.80;;;11.20;99.90;;;;;;4972267;28;20171;-74
2022/04/22 05:42:45;;;;;;;8.10;7.20;;;11.30;99.90;;;;;;4972506;28;20176;-74
2022/04/22 05:45:12;;;;;;;11.43;7.20;;;11.40;99.90;;;;;;4972300;28;20242;-74
2022/04/22 05:47:39;;;;;;;7.32;6.63;;;11.40;99.90;;;;;;4971794;28;20595;-73
2022/04/22 05:50:07;;;;;;;8.73;7.63;;;11.50;99.90;;;;;;4970670;28;20235;-74
2022/04/22 05:52:33;;;;;;;10.23;7.50;;;11.60;99.90;;;;;;4972327;28;20183;-74
2022/04/22 05:55:03;;;;;;;8.48;6.75;;;11.70;99.90;;;;;;4955133;28;20175;-74
2022/04/22 05:57:30;;;;;;;9.67;8.63;;;11.80;99.90;;;;;;4972639;28;21100;-72
2022/04/22 05:59:57;;;;;;;9.38;8.48;;;11.90;99.90;;;;;;4954542;28;20713;-71
2022/04/22 06:02:22;;;;;;;8.60;7.70;;;12.00;99.90;;;;;;4970587;28;20214;-72
2022/04/22 06:04:48;;;;;;;7.63;6.37;;;12.10;99.90;;;;;;4971941;28;20613;-72
2022/04/22 06:07:14;;;;;;;11.20;9.30;;;12.20;99.90;;;;;;4971296;28;20708;-72
2022/04/22 06:12:24;;;;;;;9.40;8.50;;;12.40;99.90;;;;;;4970344;28;20790;-72
2022/04/22 06:14:49;;;;;;;13.70;8.00;;;12.60;99.90;;;;;;4971839;28;20271;-72
2022/04/22 06:17:15;;;;;;;9.83;8.83;;;12.70;99.90;;;;;;4954179;28;20723;-73
2022/04/22 06:19:41;;;;;;;10.37;9.27;;;12.90;99.90;;;;;;4971086;28;20573;-72
2022/04/22 06:22:07;;;;;;;7.10;6.43;;;13.00;99.90;;;;;;4972203;28;20168;-73
2022/04/22 06:24:32;;;;;;;8.90;7.60;;;13.10;99.90;;;;;;4975110;28;20254;-73
2022/04/22 06:26:58;;;;;;;10.27;8.90;;;13.40;99.90;;;;;;4974697;28;20255;-72
2022/04/22 06:29:24;;;;;;;8.43;7.30;;;14.00;99.90;;;;;;4984499;28;20213;-73
2022/04/22 06:31:50;;;;;;;7.80;7.00;;;14.90;99.90;;;;;;4984956;28;20251;-73
2022/04/22 06:34:17;;;;;;;7.43;6.40;;;16.00;99.90;;;;;;4966351;28;20614;-73
2022/04/22 06:36:43;;;;;;;9.07;5.87;;;17.10;99.90;;;;;;4985124;28;20594;-73
2022/04/22 06:39:09;;;;;;;7.03;6.20;;;18.20;99.90;;;;;;4986280;28;20583;-73
2022/04/22 06:47:04;;;;;;;6.83;5.07;;;21.60;99.90;;;;;;4984510;28;20571;-73
2022/04/22 06:49:30;;;;;;;6.00;5.40;;;22.70;99.00;;;;;;4983527;28;20633;-72
2022/04/22 06:51:56;;;;;;;6.27;5.70;;;23.60;97.20;;;;;;4983904;28;20947;-72
2022/04/22 06:54:22;;;;;;;6.50;5.80;;;24.40;95.60;;;;;;4983997;28;20621;-72
2022/04/22 06:56:49;;;;;;;5.30;4.80;;;25.10;92.90;;;;;;4962556;28;20179;-72
2022/04/22 06:59:21;;;;;;;5.87;5.27;;;25.80;91.70;;;;;;4975870;28;20669;-72
2022/04/22 07:01:48;;;;;;;5.83;5.33;;;26.40;89.10;;;;;;4983466;28;20609;-72
2022/04/22 07:04:14;;;;;;;6.00;5.50;;;27.10;86.40;;;;;;4983048;28;20642;-72
2022/04/22 07:06:41;;;;;;;5.83;5.20;;;27.50;77.90;;;;;;4991354;28;20601;-72
2022/04/22 07:09:08;;;;;;;5.83;5.33;;;27.40;70.70;;;;;;4993922;28;20575;-71
2022/04/22 07:11:35;;;;;;;8.20;6.20;;;27.00;67.10;;;;;;4972393;28;20673;-71
2022/04/22 07:14:01;;;;;;;8.27;6.53;;;26.40;63.70;;;;;;4974686;28;20618;-71
2022/04/22 07:16:27;;;;;;;7.60;6.60;;;25.50;62.60;;;;;;4976517;28;20599;-72
2022/04/22 07:18:54;;;;;;;7.70;6.90;;;24.80;62.90;;;;;;4980909;28;21142;-73
2022/04/22 07:21:24;;;;;;;7.60;6.40;;;24.00;62.70;;;;;;4960805;28;20620;-72
2022/04/22 07:23:50;;;;;;;8.00;7.00;;;23.20;61.80;;;;;;4958530;28;20649;-73
2022/04/22 07:26:19;;;;;;;8.50;7.70;;;22.30;61.20;;;;;;4973890;28;20567;-73
2022/04/22 07:28:47;;;;;;;7.67;6.40;;;21.60;62.40;;;;;;4974110;28;20610;-72
2022/04/22 07:31:23;;;;;;;7.77;6.60;;;21.00;64.00;;;;;;4973774;28;20622;-74
2022/04/22 07:33:49;;;;;;;8.23;7.53;;;20.70;66.20;;;;;;4973701;28;21225;-74
2022/04/22 07:36:15;;;;;;;8.00;7.20;;;20.40;67.70;;;;;;4973281;28;20674;-73
2022/04/22 07:38:41;;;;;;;7.33;6.60;;;20.30;68.70;;;;;;4956645;28;20959;-72
2022/04/22 07:41:09;;;;;;;6.60;6.00;;;20.10;69.20;;;;;;4973628;28;20580;-73
2022/04/22 07:49:05;;;;;;;6.73;6.07;;;22.10;77.80;;;;;;4973593;28;20665;-72
2022/04/22 07:51:31;;;;;;;6.27;5.77;;;23.20;79.00;;;;;;4956184;28;20598;-72
2022/04/22 07:53:57;;;;;;;5.80;5.27;;;24.10;74.60;;;;;;4973920;28;20607;-72
2022/04/22 07:56:24;;;;;;;6.33;5.83;;;25.10;74.60;;;;;;4973634;28;20630;-72
2022/04/22 07:58:50;;;;;;;7.03;6.43;;;26.00;72.80;;;;;;4973474;28;20176;-72
2022/04/22 08:01:16;;;;;;;5.70;5.20;;;26.80;70.50;;;;;;4973536;28;20598;-72
2022/04/22 08:03:41;;;;;;;7.20;6.50;;;27.50;68.00;;;;;;4974010;28;20614;-72
2022/04/22 08:06:07;;;;;;;6.87;6.13;;;28.00;59.10;;;;;;4973605;28;20168;-71
2022/04/22 08:08:33;;;;;;;6.10;5.60;;;28.60;61.20;;;;;;4973209;28;20190;-72
2022/04/22 08:10:59;;;;;;;6.03;5.53;;;29.20;59.80;;;;;;4973375;28;20227;-71
2022/04/22 08:13:26;;;;;;;5.80;5.30;;;29.70;58.40;;;;;;4973633;28;20206;-72
2022/04/22 08:15:52;;;;;;;5.90;4.67;;;30.00;53.50;;;;;;4973897;28;20167;-72
2022/04/22 08:18:18;;;;;;;5.07;4.60;;;30.20;54.60;;;;;;4972911;28;20571;-71
2022/04/22 08:20:43;;;;;;;5.60;4.70;;;30.30;54.10;;;;;;4961126;28;20602;-72
2022/04/22 08:23:09;;;;;;;5.33;4.83;;;30.30;53.10;;;;;;4973331;28;20740;-71
2022/04/22 08:25:35;;;;;;;6.67;5.23;;;30.20;52.10;;;;;;4973396;28;20197;-71
2022/04/22 08:28:03;;;;;;;5.33;4.53;;;30.10;51.80;;;;;;4987800;28;20175;-72
2022/04/22 08:30:29;;;;;;;6.30;5.70;;;30.00;51.00;;;;;;4971801;28;20211;-72
2022/04/22 08:32:55;;;;;;;5.23;4.73;;;29.50;49.50;;;;;;4971988;28;20575;-72
2022/04/22 08:35:21;;;;;;;5.33;4.83;;;28.90;47.80;;;;;;4988148;28;20614;-72
2022/04/22 08:37:47;;;;;;;5.63;5.13;;;28.50;47.30;;;;;;4972026;28;20590;-72
2022/04/22 08:40:13;;;;;;;8.60;4.83;;;28.00;48.20;;;;;;4971744;28;20654;-72
2022/04/22 08:42:41;;;;;;;6.73;6.10;;;27.60;48.40;;;;;;4970375;28;20190;-72
2022/04/22 08:45:09;;;;;;;7.50;6.80;;;27.40;47.90;;;;;;4963647;28;20623;-72
2022/04/22 08:50:22;;;;;;;4.40;3.97;;;26.40;46.60;;;;;;4968079;28;20991;-72
2022/04/22 08:52:56;;;;;;;4.40;4.00;;;26.00;47.00;;;;;;4970960;28;20607;-72
2022/04/22 08:55:23;;;;;;;4.90;4.30;;;25.30;46.50;;;;;;4972748;28;20618;-72
2022/04/22 08:57:49;;;;;;;5.37;4.30;;;24.60;46.70;;;;;;4954723;28;20951;-71
2022/04/22 09:00:16;;;;;;;4.23;3.80;;;24.00;46.90;;;;;;4972115;28;21111;-71
2022/04/22 09:02:42;;;;;;;4.90;4.40;;;23.40;47.30;;;;;;4955421;28;20579;-72
2022/04/22 09:05:09;;;;;;;4.40;4.00;;;22.90;47.80;;;;;;4972512;28;20610;-72
2022/04/22 09:07:37;;;;;;;4.47;4.07;;;22.60;48.60;;;;;;4971659;28;20180;-72
2022/04/22 09:10:03;;;;;;;3.73;3.33;;;22.40;49.00;;;;;;4970742;28;21198;-71
2022/04/22 09:12:29;;;;;;;5.27;4.07;;;22.20;49.30;;;;;;4972324;28;20683;-71
2022/04/22 09:14:59;;;;;;;4.10;3.70;;;21.90;49.20;;;;;;4969852;28;20639;-71
2022/04/22 09:17:30;;;;;;;4.37;3.97;;;21.70;49.60;;;;;;4962599;28;20584;-72
2022/04/22 09:20:00;;;;;;;4.57;3.73;;;21.60;49.90;;;;;;4963573;28;20602;-72
2022/04/22 09:22:32;;;;;;;4.17;3.43;;;21.50;49.90;;;;;;4972234;28;20714;-72
2022/04/22 09:25:01;;;;;;;3.90;3.53;;;21.40;50.20;;;;;;4972263;28;20607;-72
2022/04/22 09:27:35;;;;;;;4.10;3.40;;;21.20;49.90;;;;;;4968567;28;20645;-72
2022/04/22 09:30:02;;;;;;;4.80;4.23;;;21.00;49.80;;;;;;4970925;28;20758;-71
2022/04/22 09:32:31;;;;;;;3.67;3.23;;;20.70;49.70;;;;;;4969076;28;20694;-71
2022/04/22 09:35:06;;;;;;;6.17;4.40;;;20.50;49.90;;;;;;4971626;28;20701;-71
2022/04/22 09:43:01;;;;;;;4.03;3.60;;;20.10;50.40;;;;;;4983716;28;20585;-72
2022/04/22 09:45:39;;;;;;;4.93;4.43;;;19.90;50.30;;;;;;4974678;28;20610;-71
2022/04/22 09:48:14;;;;;;;5.33;4.27;;;19.60;50.50;;;;;;4974045;28;20214;-71
2022/04/22 09:50:45;;;;;;;3.37;3.07;;;19.40;50.80;;;;;;4970450;28;21006;-71
2022/04/22 09:53:12;;;;;;;3.60;3.30;;;19.30;51.00;;;;;;4971385;28;20690;-72
2022/04/22 09:55:50;;;;;;;6.23;4.30;;;19.50;52.10;;;;;;4953570;28;20625;-72
2022/04/22 09:58:23;;;;;;;4.73;4.33;;;19.60;51.80;;;;;;4971360;28;20566;-72
2022/04/22 10:00:56;;;;;;;4.33;3.93;;;19.80;51.70;;;;;;4957625;28;20661;-72
2022/04/22 10:03:23;;;;;;;6.10;4.07;;;19.80;51.60;;;;;;4974640;28;20606;-73
2022/04/22 10:05:51;;;;;;;5.17;4.10;;;19.90;51.70;;;;;;4974504;28;20587;-72
2022/04/22 10:08:19;;;;;;;5.60;4.60;;;20.00;51.50;;;;;;4973792;28;20650;-72
2022/04/22 10:10:46;;;;;;;3.77;3.47;;;20.00;51.40;;;;;;4975795;28;20654;-72
2022/04/22 10:13:17;;;;;;;4.97;2.70;;;20.10;51.90;;;;;;4976360;28;20599;-72
2022/04/22 10:15:45;;;;;;;4.53;3.87;;;20.30;52.40;;;;;;4976267;28;20626;-72
2022/04/22 10:18:15;;;;;;;4.10;3.47;;;20.70;53.10;;;;;;4975818;28;20563;-72
2022/04/22 10:20:41;;;;;;;5.10;4.53;;;21.40;54.00;;;;;;4975738;28;20678;-72
2022/04/22 10:23:07;;;;;;;7.63;5.20;;;22.20;53.10;;;;;;4974928;28;20583;-73
2022/04/22 10:25:33;;;;;;;4.30;3.90;;;22.50;51.70;;;;;;4976299;28;21126;-74
2022/04/22 10:28:06;;;;;;;4.37;3.97;;;23.00;52.10;;;;;;4975550;28;20223;-75
2022/04/22 10:30:32;;;;;;;3.40;2.97;;;23.40;51.10;;;;;;4975589;28;20709;-75
2022/04/22 10:32:59;;;;;;;4.07;3.67;;;24.00;51.10;;;;;;4958787;28;20670;-75
2022/04/22 10:35:25;;;;;;;3.87;3.50;;;24.70;51.60;;;;;;4958302;28;20595;-74
2022/04/22 10:37:54;;;;;;;4.53;4.23;;;25.10;50.60;;;;;;4975305;28;20933;-75
2022/04/22 10:40:25;;;;;;;5.23;4.43;;;25.30;49.30;;;;;;4975420;28;21123;-75
2022/04/22 10:42:52;;;;;;;3.63;3.33;;;25.20;46.40;;;;;;4958375;28;20637;-75
2022/04/22 10:48:21;;;;;;;4.00;3.70;;;25.40;49.70;;;;;;4974043;28;20673;-74
2022/04/22 10:51:02;;;;;;;3.53;3.13;;;25.60;47.60;;;;;;4975193;28;20637;-75
2022/04/22 10:53:33;;;;;;;3.63;3.33;;;25.60;46.70;;;;;;4975355;28;20642;-75
2022/04/22 10:56:28;;;;;;;3.87;3.50;;;25.60;46.30;;;;;;4974469;28;20906;-74
2022/04/22 10:59:15;;;;;;;4.07;3.77;;;25.50;46.70;;;;;;4973830;28;20571;-75
2022/04/22 11:01:43;;;;;;;3.37;3.07;;;25.20;45.70;;;;;;4957818;28;20590;-75
2022/04/22 11:04:20;;;;;;;4.47;4.07;;;25.00;46.50;;;;;;4975138;28;20603;-75
2022/04/22 11:06:47;;;;;;;4.80;4.40;;;24.80;45.80;;;;;;4975223;28;21041;-74
2022/04/22 11:09:25;;;;;;;3.83;3.07;;;24.70;46.20;;;;;;4973351;28;20571;-74
2022/04/22 11:11:51;;;;;;;4.40;4.00;;;24.60;47.00;;;;;;4957565;28;20613;-75
2022/04/22 11:14:23;;;;;;;4.37;3.97;;;24.70;47.20;;;;;;4957774;28;20638;-75
2022/04/22 11:16:49;;;;;;;5.20;4.60;;;24.80;46.20;;;;;;4973756;28;20614;-74
2022/04/22 11:19:18;;;;;;;4.73;4.33;;;24.80;46.20;;;;;;4974219;28;20978;-74
2022/04/22 11:21:50;;;;;;;5.53;4.93;;;24.80;45.70;;;;;;4974988;28;20973;-74
2022/04/22 11:24:21;;;;;;;4.00;3.43;;;24.90;46.20;;;;;;4954119;28;20638;-74
2022/04/22 11:26:47;;;;;;;3.83;3.40;;;25.10;47.40;;;;;;4973803;28;20710;-74
2022/04/22 11:29:14;;;;;;;3.87;3.47;;;25.50;47.60;;;;;;4966862;28;20594;-74
2022/04/22 11:32:03;;;;;;;4.20;3.80;;;26.00;47.90;;;;;;4971146;28;20606;-74
2022/04/22 11:34:44;;;;;;;3.60;3.30;;;26.20;46.50;;;;;;4970201;28;20764;-75
2022/04/22 11:37:22;;;;;;;4.77;3.53;;;26.30;46.30;;;;;;4965358;28;20603;-75
2022/04/22 11:39:48;;;;;;;4.90;4.50;;;26.40;45.20;;;;;;4956297;28;20594;-76
2022/04/22 11:42:17;;;;;;;3.90;3.60;;;26.40;44.70;;;;;;4983996;28;21212;-76
2022/04/22 11:45:05;;;;;;;4.73;4.30;;;26.20;45.10;;;;;;4975086;28;20705;-76
2022/04/22 11:47:31;;;;;;;3.80;3.37;;;26.10;45.00;;;;;;4974308;28;20634;-75
2022/04/22 11:49:57;;;;;;;4.37;4.07;;;26.00;45.00;;;;;;4973113;28;20626;-75
2022/04/22 11:52:23;;;;;;;3.97;3.67;;;25.80;44.40;;;;;;4974752;28;20575;-75
2022/04/22 11:54:50;;;;;;;3.90;3.20;;;25.50;44.30;;;;;;4974475;28;20279;-75
2022/04/22 11:57:19;;;;;;;4.30;3.90;;;25.20;44.60;;;;;;4989656;28;20607;-75
2022/04/22 12:05:32;;;;;;;5.50;4.00;;;24.90;43.90;;;;;;4973928;28;20583;-73
2022/04/22 12:05:32;;;;;;;4.27;2.80;;;24.20;43.80;;;;;;4971529;28;20618;-73
2022/04/22 12:08:05;;;;;;;4.40;4.00;;;24.00;44.70;;;;;;4973490;28;20595;-74
2022/04/22 12:10:33;;;;;;;3.40;3.20;;;24.00;46.00;;;;;;4973398;28;20204;-73
2022/04/22 12:13:04;;;;;;;3.20;2.90;;;24.10;46.00;;;;;;4956569;28;20723;-73
2022/04/22 12:15:31;;;;;;;4.37;3.97;;;24.30;46.10;;;;;;4973229;28;20575;-73
2022/04/22 12:17:57;;;;;;;6.20;4.40;;;24.50;46.00;;;;;;4973334;28;20669;-73
2022/04/22 12:20:26;;;;;;;4.20;3.80;;;24.70;46.30;;;;;;4972705;28;20924;-73
2022/04/22 12:22:55;;;;;;;5.20;4.60;;;25.00;46.20;;;;;;4956311;28;20683;-73
2022/04/22 12:25:22;;;;;;;5.87;4.40;;;25.20;45.30;;;;;;4966277;28;20645;-72
2022/04/22 12:28:07;;;;;;;3.65;3.20;;;25.00;44.80;;;;;;4972940;28;20513;-72
2022/04/22 12:30:37;;;;;;;3.60;3.30;;;24.80;42.80;;;;;;4972531;28;20768;-72
2022/04/22 12:33:04;;;;;;;2.77;2.57;;;24.70;43.90;;;;;;4973554;28;20572;-72
2022/04/22 12:35:30;;;;;;;8.87;4.80;;;24.70;44.20;;;;;;4972144;28;20622;-72
2022/04/22 12:37:57;;;;;;;3.60;3.30;;;24.60;43.50;;;;;;4987104;28;20605;-72
2022/04/22 12:40:23;;;;;;;3.37;3.07;;;24.50;43.70;;;;;;4972821;28;20575;-72
2022/04/22 12:42:51;;;;;;;3.60;3.30;;;24.20;43.20;;;;;;4973510;28;20669;-72
2022/04/22 12:54:03;;;;;;;4.97;4.40;;;23.30;44.00;;;;;;4971263;28;20625;-72
2022/04/22 12:56:29;;;;;;;5.60;3.90;;;23.00;43.20;;;;;;4976167;28;20583;-72
2022/04/22 12:59:02;;;;;;;4.00;3.70;;;22.80;43.60;;;;;;4977026;28;20970;-72
2022/04/22 13:01:30;;;;;;;3.57;3.27;;;22.60;43.90;;;;;;4972153;28;21106;-72
2022/04/22 13:03:57;;;;;;;4.60;4.20;;;22.50;43.90;;;;;;4972744;28;20677;-72
2022/04/22 13:06:43;;;;;;;4.07;3.67;;;22.40;44.00;;;;;;4972525;28;20571;-72
2022/04/22 13:09:11;;;;;;;3.90;3.17;;;22.20;44.10;;;;;;4974506;28;20589;-73
2022/04/22 13:11:38;;;;;;;3.93;3.53;;;22.10;44.20;;;;;;4985564;28;20652;-72
2022/04/22 13:14:05;;;;;;;4.40;4.00;;;22.10;44.50;;;;;;4951633;28;20602;-73
2022/04/22 13:16:31;;;;;;;4.73;4.13;;;22.10;44.40;;;;;;4991392;28;20567;-73
2022/04/22 13:19:00;;;;;;;6.30;4.27;;;22.00;44.50;;;;;;4977889;28;20603;-72
2022/04/22 13:21:27;;;;;;;3.23;2.93;;;21.90;44.60;;;;;;4956901;28;20596;-72
2022/04/22 13:23:54;;;;;;;3.33;3.00;;;22.00;45.00;;;;;;4968336;28;20997;-71
2022/04/22 13:26:20;;;;;;;4.07;3.67;;;22.00;45.00;;;;;;4958202;28;20590;-72
2022/04/22 13:28:46;;;;;;;4.67;2.87;;;22.10;45.50;;;;;;4977677;28;20590;-72
2022/04/22 13:31:12;;;;;;;3.20;2.83;;;22.20;45.70;;;;;;4980750;28;20662;-72
2022/04/22 13:33:39;;;;;;;2.93;2.50;;;22.30;46.10;;;;;;4973465;28;21050;-76
2022/04/22 13:36:07;;;;;;;3.60;2.67;;;22.50;46.30;;;;;;4982842;28;20183;-76
2022/04/22 13:38:34;;;;;;;3.40;2.63;;;22.60;46.10;;;;;;4991691;28;20566;-76
2022/04/22 13:41:02;;;;;;;3.20;2.90;;;22.70;46.10;;;;;;4991602;28;20942;-76
2022/04/22 13:43:30;;;;;;;5.30;3.00;;;22.80;46.10;;;;;;4990257;28;20605;-76
2022/04/22 13:54:14;;;;;;;3.60;2.90;;;22.90;46.10;;;;;;4972375;28;20595;-76
2022/04/22 13:56:40;;;;;;;4.10;2.70;;;22.80;46.20;;;;;;4972067;28;20578;-72
2022/04/22 13:59:06;;;;;;;3.23;2.70;;;22.70;46.20;;;;;;4972013;28;20571;-73